sensor_id;sensor_type;location;lat;lon;timestamp;P1;durP1;ratioP1;P2;durP2;ratioP2
57029;SDS011;42920;45.306;20.448;2022-08-24T00:01:04;24.33;;;16.80;;
57029;SDS011;42920;45.306;20.448;2022-08-24T00:03:32;24.60;;;17.05;;
57029;SDS011;42920;45.306;20.448;2022-08-24T00:05:58;22.85;;;16.77;;
57029;SDS011;42920;45.306;20.448;2022-08-24T00:08:24;22.60;;;16.85;;
57029;SDS011;42920;45.306;20.448;2022-08-24T00:10:50;24.63;;;17.52;;
57029;SDS011;42920;45.306;20.448;2022-08-24T00:13:16;23.65;;;17.48;;
57029;SDS011;42920;45.306;20.448;2022-08-24T00:15:42;25.80;;;16.95;;
57029;SDS011;42920;45.306;20.448;2022-08-24T00:18:08;22.13;;;17.20;;
57029;SDS011;42920;45.306;20.448;2022-08-24T00:20:33;22.83;;;16.10;;
57029;SDS011;42920;45.306;20.448;2022-08-24T00:22:59;23.20;;;17.73;;
57029;SDS011;42920;45.306;20.448;2022-08-24T00:25:26;21.23;;;17.30;;
57029;SDS011;42920;45.306;20.448;2022-08-24T00:27:51;22.77;;;16.33;;
57029;SDS011;42920;45.306;20.448;2022-08-24T00:30:18;22.75;;;17.40;;
57029;SDS011;42920;45.306;20.448;2022-08-24T00:32:45;22.27;;;16.27;;
57029;SDS011;42920;45.306;20.448;2022-08-24T00:35:12;22.50;;;16.13;;
57029;SDS011;42920;45.306;20.448;2022-08-24T00:37:38;18.88;;;15.88;;
57029;SDS011;42920;45.306;20.448;2022-08-24T00:40:08;24.08;;;17.38;;
57029;SDS011;42920;45.306;20.448;2022-08-24T00:42:37;21.48;;;16.05;;
57029;SDS011;42920;45.306;20.448;2022-08-24T00:45:04;22.45;;;17.25;;
57029;SDS011;42920;45.306;20.448;2022-08-24T00:47:37;20.73;;;16.55;;
57029;SDS011;42920;45.306;20.448;2022-08-24T00:50:09;22.20;;;16.42;;
57029;SDS011;42920;45.306;20.448;2022-08-24T00:52:39;22.15;;;16.10;;
57029;SDS011;42920;45.306;20.448;2022-08-24T00:55:16;22.85;;;16.58;;
57029;SDS011;42920;45.306;20.448;2022-08-24T00:57:48;21.92;;;16.75;;
57029;SDS011;42920;45.306;20.448;2022-08-24T01:00:20;21.95;;;16.77;;
57029;SDS011;42920;45.306;20.448;2022-08-24T01:02:50;20.00;;;15.65;;
57029;SDS011;42920;45.306;20.448;2022-08-24T01:05:22;23.35;;;16.17;;
57029;SDS011;42920;45.306;20.448;2022-08-24T01:07:48;22.17;;;15.40;;
57029;SDS011;42920;45.306;20.448;2022-08-24T01:10:21;21.73;;;15.07;;
57029;SDS011;42920;45.306;20.448;2022-08-24T01:12:49;24.77;;;16.17;;
57029;SDS011;42920;45.306;20.448;2022-08-24T01:15:18;19.30;;;14.40;;
57029;SDS011;42920;45.306;20.448;2022-08-24T01:17:46;18.13;;;13.68;;
57029;SDS011;42920;45.306;20.448;2022-08-24T01:20:31;18.30;;;14.05;;
57029;SDS011;42920;45.306;20.448;2022-08-24T01:23:11;20.25;;;14.68;;
57029;SDS011;42920;45.306;20.448;2022-08-24T01:25:50;19.05;;;13.90;;
57029;SDS011;42920;45.306;20.448;2022-08-24T01:28:17;19.17;;;14.38;;
57029;SDS011;42920;45.306;20.448;2022-08-24T01:30:44;20.02;;;14.60;;
57029;SDS011;42920;45.306;20.448;2022-08-24T01:33:13;19.17;;;14.48;;
57029;SDS011;42920;45.306;20.448;2022-08-24T01:35:52;18.33;;;13.98;;
57029;SDS011;42920;45.306;20.448;2022-08-24T01:38:22;19.85;;;15.02;;
57029;SDS011;42920;45.306;20.448;2022-08-24T01:40:49;18.60;;;13.07;;
57029;SDS011;42920;45.306;20.448;2022-08-24T01:43:19;18.85;;;13.63;;
57029;SDS011;42920;45.306;20.448;2022-08-24T01:45:44;22.88;;;16.20;;
57029;SDS011;42920;45.306;20.448;2022-08-24T01:48:10;21.73;;;14.82;;
57029;SDS011;42920;45.306;20.448;2022-08-24T01:50:37;19.13;;;14.02;;
57029;SDS011;42920;45.306;20.448;2022-08-24T01:53:04;23.10;;;15.48;;
57029;SDS011;42920;45.306;20.448;2022-08-24T01:55:31;18.42;;;13.63;;
57029;SDS011;42920;45.306;20.448;2022-08-24T01:57:57;22.10;;;14.70;;
57029;SDS011;42920;45.306;20.448;2022-08-24T02:00:23;17.63;;;14.43;;
57029;SDS011;42920;45.306;20.448;2022-08-24T02:02:49;22.45;;;14.77;;
57029;SDS011;42920;45.306;20.448;2022-08-24T02:05:15;20.67;;;14.77;;
57029;SDS011;42920;45.306;20.448;2022-08-24T02:07:41;20.33;;;14.30;;
57029;SDS011;42920;45.306;20.448;2022-08-24T02:10:11;19.95;;;13.15;;
57029;SDS011;42920;45.306;20.448;2022-08-24T02:12:39;19.60;;;15.07;;
57029;SDS011;42920;45.306;20.448;2022-08-24T02:15:06;17.48;;;14.50;;
57029;SDS011;42920;45.306;20.448;2022-08-24T02:17:35;18.75;;;15.15;;
57029;SDS011;42920;45.306;20.448;2022-08-24T02:20:02;21.67;;;14.82;;
57029;SDS011;42920;45.306;20.448;2022-08-24T02:22:29;19.88;;;14.20;;
57029;SDS011;42920;45.306;20.448;2022-08-24T02:24:55;21.00;;;15.20;;
57029;SDS011;42920;45.306;20.448;2022-08-24T02:27:21;22.80;;;14.98;;
57029;SDS011;42920;45.306;20.448;2022-08-24T02:29:47;19.85;;;15.25;;
57029;SDS011;42920;45.306;20.448;2022-08-24T02:32:13;26.85;;;15.88;;
57029;SDS011;42920;45.306;20.448;2022-08-24T02:34:39;23.58;;;16.70;;
57029;SDS011;42920;45.306;20.448;2022-08-24T02:37:05;25.30;;;17.02;;
57029;SDS011;42920;45.306;20.448;2022-08-24T02:39:31;20.33;;;15.70;;
57029;SDS011;42920;45.306;20.448;2022-08-24T02:41:56;19.80;;;15.23;;
57029;SDS011;42920;45.306;20.448;2022-08-24T02:44:22;19.80;;;15.23;;
57029;SDS011;42920;45.306;20.448;2022-08-24T02:46:48;21.88;;;15.07;;
57029;SDS011;42920;45.306;20.448;2022-08-24T02:49:14;18.83;;;14.45;;
57029;SDS011;42920;45.306;20.448;2022-08-24T02:51:41;19.90;;;14.95;;
57029;SDS011;42920;45.306;20.448;2022-08-24T02:54:09;19.35;;;15.63;;
57029;SDS011;42920;45.306;20.448;2022-08-24T02:56:35;20.42;;;15.85;;
57029;SDS011;42920;45.306;20.448;2022-08-24T02:59:01;22.88;;;14.90;;
57029;SDS011;42920;45.306;20.448;2022-08-24T03:01:27;23.10;;;15.98;;
57029;SDS011;42920;45.306;20.448;2022-08-24T03:03:53;19.20;;;14.77;;
57029;SDS011;42920;45.306;20.448;2022-08-24T03:06:20;20.92;;;15.43;;
57029;SDS011;42920;45.306;20.448;2022-08-24T03:08:46;20.13;;;14.52;;
57029;SDS011;42920;45.306;20.448;2022-08-24T03:11:12;20.98;;;14.65;;
57029;SDS011;42920;45.306;20.448;2022-08-24T03:13:38;19.85;;;15.02;;
57029;SDS011;42920;45.306;20.448;2022-08-24T03:16:05;19.77;;;14.75;;
57029;SDS011;42920;45.306;20.448;2022-08-24T03:18:31;20.85;;;14.70;;
57029;SDS011;42920;45.306;20.448;2022-08-24T03:20:58;18.55;;;14.23;;
57029;SDS011;42920;45.306;20.448;2022-08-24T03:23:25;17.58;;;15.05;;
57029;SDS011;42920;45.306;20.448;2022-08-24T03:25:52;21.42;;;14.77;;
57029;SDS011;42920;45.306;20.448;2022-08-24T03:28:18;17.00;;;13.20;;
57029;SDS011;42920;45.306;20.448;2022-08-24T03:30:45;20.50;;;15.10;;
57029;SDS011;42920;45.306;20.448;2022-08-24T03:33:11;17.70;;;14.18;;
57029;SDS011;42920;45.306;20.448;2022-08-24T03:35:37;20.20;;;14.02;;
57029;SDS011;42920;45.306;20.448;2022-08-24T03:38:03;18.73;;;14.60;;
57029;SDS011;42920;45.306;20.448;2022-08-24T03:40:30;20.63;;;15.48;;
57029;SDS011;42920;45.306;20.448;2022-08-24T03:42:57;18.73;;;14.35;;
57029;SDS011;42920;45.306;20.448;2022-08-24T03:45:23;20.20;;;14.43;;
57029;SDS011;42920;45.306;20.448;2022-08-24T03:47:50;18.55;;;14.27;;
57029;SDS011;42920;45.306;20.448;2022-08-24T03:50:17;21.95;;;15.82;;
57029;SDS011;42920;45.306;20.448;2022-08-24T03:52:44;17.98;;;14.30;;
57029;SDS011;42920;45.306;20.448;2022-08-24T03:55:10;24.40;;;15.30;;
57029;SDS011;42920;45.306;20.448;2022-08-24T03:57:36;20.23;;;14.45;;
57029;SDS011;42920;45.306;20.448;2022-08-24T04:00:03;21.13;;;15.05;;
57029;SDS011;42920;45.306;20.448;2022-08-24T04:02:31;18.10;;;14.43;;
57029;SDS011;42920;45.306;20.448;2022-08-24T04:04:57;20.35;;;15.48;;
57029;SDS011;42920;45.306;20.448;2022-08-24T04:07:23;19.55;;;15.05;;
57029;SDS011;42920;45.306;20.448;2022-08-24T04:09:49;19.98;;;15.23;;
57029;SDS011;42920;45.306;20.448;2022-08-24T04:12:15;21.42;;;16.08;;
57029;SDS011;42920;45.306;20.448;2022-08-24T04:14:40;21.65;;;16.73;;
57029;SDS011;42920;45.306;20.448;2022-08-24T04:17:06;24.35;;;16.85;;
57029;SDS011;42920;45.306;20.448;2022-08-24T04:19:32;26.80;;;17.55;;
57029;SDS011;42920;45.306;20.448;2022-08-24T04:21:59;25.52;;;18.67;;
57029;SDS011;42920;45.306;20.448;2022-08-24T04:24:25;31.33;;;20.27;;
57029;SDS011;42920;45.306;20.448;2022-08-24T04:26:51;27.58;;;17.88;;
57029;SDS011;42920;45.306;20.448;2022-08-24T04:29:17;25.15;;;18.63;;
57029;SDS011;42920;45.306;20.448;2022-08-24T04:31:44;22.15;;;17.42;;
57029;SDS011;42920;45.306;20.448;2022-08-24T04:34:11;23.15;;;16.80;;
57029;SDS011;42920;45.306;20.448;2022-08-24T04:36:41;21.02;;;16.58;;
57029;SDS011;42920;45.306;20.448;2022-08-24T04:39:08;22.55;;;17.88;;
57029;SDS011;42920;45.306;20.448;2022-08-24T04:41:35;25.23;;;17.45;;
57029;SDS011;42920;45.306;20.448;2022-08-24T04:44:01;21.15;;;16.52;;
57029;SDS011;42920;45.306;20.448;2022-08-24T04:46:27;25.65;;;17.58;;
57029;SDS011;42920;45.306;20.448;2022-08-24T04:48:53;28.77;;;19.25;;
57029;SDS011;42920;45.306;20.448;2022-08-24T04:51:19;28.13;;;18.63;;
57029;SDS011;42920;45.306;20.448;2022-08-24T04:53:45;22.35;;;17.95;;
57029;SDS011;42920;45.306;20.448;2022-08-24T04:56:13;27.35;;;19.85;;
57029;SDS011;42920;45.306;20.448;2022-08-24T04:58:45;34.72;;;21.65;;
57029;SDS011;42920;45.306;20.448;2022-08-24T05:01:12;26.52;;;19.05;;
57029;SDS011;42920;45.306;20.448;2022-08-24T05:03:42;23.50;;;18.42;;
57029;SDS011;42920;45.306;20.448;2022-08-24T05:06:10;27.00;;;20.52;;
57029;SDS011;42920;45.306;20.448;2022-08-24T05:08:37;28.63;;;18.85;;
57029;SDS011;42920;45.306;20.448;2022-08-24T05:11:04;25.75;;;20.70;;
57029;SDS011;42920;45.306;20.448;2022-08-24T05:13:33;26.58;;;20.15;;
57029;SDS011;42920;45.306;20.448;2022-08-24T05:16:00;31.55;;;22.05;;
57029;SDS011;42920;45.306;20.448;2022-08-24T05:18:29;34.20;;;20.17;;
57029;SDS011;42920;45.306;20.448;2022-08-24T05:20:57;34.17;;;20.73;;
57029;SDS011;42920;45.306;20.448;2022-08-24T05:58:54;33.90;;;24.60;;
57029;SDS011;42920;45.306;20.448;2022-08-24T06:01:21;36.10;;;24.20;;
57029;SDS011;42920;45.306;20.448;2022-08-24T06:03:48;31.33;;;23.25;;
57029;SDS011;42920;45.306;20.448;2022-08-24T06:06:16;36.50;;;25.30;;
57029;SDS011;42920;45.306;20.448;2022-08-24T06:08:44;35.20;;;23.88;;
57029;SDS011;42920;45.306;20.448;2022-08-24T06:11:21;34.28;;;24.48;;
57029;SDS011;42920;45.306;20.448;2022-08-24T06:13:50;39.22;;;24.92;;
57029;SDS011;42920;45.306;20.448;2022-08-24T06:16:17;42.30;;;26.92;;
57029;SDS011;42920;45.306;20.448;2022-08-24T06:18:43;37.10;;;25.98;;
57029;SDS011;42920;45.306;20.448;2022-08-24T06:21:10;33.80;;;24.15;;
57029;SDS011;42920;45.306;20.448;2022-08-24T06:23:38;35.25;;;23.65;;
57029;SDS011;42920;45.306;20.448;2022-08-24T06:26:05;35.90;;;24.48;;
57029;SDS011;42920;45.306;20.448;2022-08-24T06:28:50;38.53;;;26.08;;
57029;SDS011;42920;45.306;20.448;2022-08-24T06:31:16;33.17;;;24.88;;
57029;SDS011;42920;45.306;20.448;2022-08-24T06:33:43;37.03;;;25.33;;
57029;SDS011;42920;45.306;20.448;2022-08-24T06:36:09;33.75;;;25.45;;
57029;SDS011;42920;45.306;20.448;2022-08-24T06:38:35;40.25;;;28.35;;
57029;SDS011;42920;45.306;20.448;2022-08-24T06:41:01;36.55;;;24.52;;
57029;SDS011;42920;45.306;20.448;2022-08-24T06:43:27;36.47;;;25.40;;
57029;SDS011;42920;45.306;20.448;2022-08-24T06:45:53;37.53;;;26.90;;
57029;SDS011;42920;45.306;20.448;2022-08-24T06:48:20;37.67;;;25.48;;
57029;SDS011;42920;45.306;20.448;2022-08-24T06:50:46;45.08;;;25.85;;
57029;SDS011;42920;45.306;20.448;2022-08-24T06:53:12;37.10;;;25.55;;
57029;SDS011;42920;45.306;20.448;2022-08-24T06:58:13;37.78;;;25.80;;
57029;SDS011;42920;45.306;20.448;2022-08-24T07:00:38;42.72;;;27.58;;
57029;SDS011;42920;45.306;20.448;2022-08-24T07:03:05;37.00;;;24.30;;
57029;SDS011;42920;45.306;20.448;2022-08-24T07:05:31;40.08;;;27.25;;
57029;SDS011;42920;45.306;20.448;2022-08-24T07:07:57;37.45;;;25.15;;
57029;SDS011;42920;45.306;20.448;2022-08-24T07:10:24;38.85;;;24.35;;
57029;SDS011;42920;45.306;20.448;2022-08-24T07:12:50;43.85;;;27.30;;
57029;SDS011;42920;45.306;20.448;2022-08-24T07:15:16;46.10;;;28.50;;
57029;SDS011;42920;45.306;20.448;2022-08-24T07:17:43;40.22;;;27.55;;
57029;SDS011;42920;45.306;20.448;2022-08-24T07:20:10;37.35;;;26.25;;
57029;SDS011;42920;45.306;20.448;2022-08-24T07:22:36;38.60;;;26.55;;
57029;SDS011;42920;45.306;20.448;2022-08-24T07:25:02;37.58;;;26.70;;
57029;SDS011;42920;45.306;20.448;2022-08-24T07:27:29;33.72;;;24.85;;
57029;SDS011;42920;45.306;20.448;2022-08-24T07:29:55;34.58;;;25.20;;
57029;SDS011;42920;45.306;20.448;2022-08-24T07:32:21;37.67;;;25.23;;
57029;SDS011;42920;45.306;20.448;2022-08-24T07:34:47;41.05;;;28.60;;
57029;SDS011;42920;45.306;20.448;2022-08-24T07:37:13;34.47;;;26.67;;
57029;SDS011;42920;45.306;20.448;2022-08-24T07:39:39;38.20;;;28.67;;
57029;SDS011;42920;45.306;20.448;2022-08-24T07:42:04;45.78;;;33.25;;
57029;SDS011;42920;45.306;20.448;2022-08-24T07:44:30;35.55;;;28.08;;
57029;SDS011;42920;45.306;20.448;2022-08-24T07:46:56;34.45;;;25.95;;
57029;SDS011;42920;45.306;20.448;2022-08-24T07:49:22;38.25;;;26.55;;
57029;SDS011;42920;45.306;20.448;2022-08-24T07:51:48;38.72;;;26.20;;
57029;SDS011;42920;45.306;20.448;2022-08-24T07:54:17;36.92;;;24.27;;
57029;SDS011;42920;45.306;20.448;2022-08-24T07:56:46;34.58;;;24.42;;
57029;SDS011;42920;45.306;20.448;2022-08-24T07:59:12;34.13;;;23.08;;
57029;SDS011;42920;45.306;20.448;2022-08-24T08:01:38;39.08;;;25.65;;
57029;SDS011;42920;45.306;20.448;2022-08-24T08:04:05;35.50;;;25.23;;
57029;SDS011;42920;45.306;20.448;2022-08-24T08:06:31;67.97;;;50.90;;
57029;SDS011;42920;45.306;20.448;2022-08-24T08:08:56;51.08;;;38.88;;
57029;SDS011;42920;45.306;20.448;2022-08-24T08:11:22;39.13;;;29.60;;
57029;SDS011;42920;45.306;20.448;2022-08-24T08:13:48;39.65;;;26.52;;
57029;SDS011;42920;45.306;20.448;2022-08-24T08:16:14;33.25;;;25.42;;
57029;SDS011;42920;45.306;20.448;2022-08-24T08:18:40;34.63;;;25.52;;
57029;SDS011;42920;45.306;20.448;2022-08-24T08:21:06;37.10;;;25.92;;
57029;SDS011;42920;45.306;20.448;2022-08-24T08:23:54;37.42;;;24.88;;
57029;SDS011;42920;45.306;20.448;2022-08-24T08:26:38;33.88;;;24.55;;
57029;SDS011;42920;45.306;20.448;2022-08-24T08:29:05;34.63;;;25.52;;
57029;SDS011;42920;45.306;20.448;2022-08-24T08:31:30;37.17;;;24.85;;
57029;SDS011;42920;45.306;20.448;2022-08-24T08:33:57;34.42;;;25.75;;
57029;SDS011;42920;45.306;20.448;2022-08-24T08:36:23;31.63;;;25.95;;
57029;SDS011;42920;45.306;20.448;2022-08-24T08:38:49;34.72;;;26.25;;
57029;SDS011;42920;45.306;20.448;2022-08-24T08:41:21;43.13;;;27.67;;
57029;SDS011;42920;45.306;20.448;2022-08-24T08:44:05;37.33;;;26.38;;
57029;SDS011;42920;45.306;20.448;2022-08-24T08:47:13;33.35;;;25.02;;
57029;SDS011;42920;45.306;20.448;2022-08-24T08:50:35;30.60;;;23.70;;
57029;SDS011;42920;45.306;20.448;2022-08-24T08:58:46;37.65;;;26.52;;
57029;SDS011;42920;45.306;20.448;2022-08-24T09:06:53;36.22;;;26.15;;
57029;SDS011;42920;45.306;20.448;2022-08-24T09:28:41;35.75;;;25.40;;
57029;SDS011;42920;45.306;20.448;2022-08-24T09:58:56;34.58;;;24.75;;
57029;SDS011;42920;45.306;20.448;2022-08-24T10:07:04;33.17;;;23.55;;
57029;SDS011;42920;45.306;20.448;2022-08-24T10:12:44;33.65;;;24.38;;
57029;SDS011;42920;45.306;20.448;2022-08-24T10:26:10;41.70;;;26.33;;
57029;SDS011;42920;45.306;20.448;2022-08-24T10:33:36;33.63;;;24.33;;
57029;SDS011;42920;45.306;20.448;2022-08-24T10:42:06;31.63;;;23.15;;
57029;SDS011;42920;45.306;20.448;2022-08-24T10:53:58;29.15;;;22.85;;
57029;SDS011;42920;45.306;20.448;2022-08-24T10:59:25;41.83;;;30.48;;
57029;SDS011;42920;45.306;20.448;2022-08-24T11:04:32;30.83;;;22.63;;
57029;SDS011;42920;45.306;20.448;2022-08-24T11:09:49;27.70;;;22.15;;
57029;SDS011;42920;45.306;20.448;2022-08-24T11:14:54;28.02;;;22.50;;
57029;SDS011;42920;45.306;20.448;2022-08-24T11:17:23;30.23;;;22.48;;
57029;SDS011;42920;45.306;20.448;2022-08-24T11:19:51;40.20;;;29.63;;
57029;SDS011;42920;45.306;20.448;2022-08-24T11:25:08;24.38;;;19.25;;
57029;SDS011;42920;45.306;20.448;2022-08-24T11:27:44;39.22;;;30.52;;
57029;SDS011;42920;45.306;20.448;2022-08-24T11:32:46;23.77;;;19.55;;
57029;SDS011;42920;45.306;20.448;2022-08-24T11:38:20;23.67;;;19.20;;
57029;SDS011;42920;45.306;20.448;2022-08-24T11:40:51;25.92;;;18.90;;
57029;SDS011;42920;45.306;20.448;2022-08-24T11:43:24;21.80;;;17.38;;
57029;SDS011;42920;45.306;20.448;2022-08-24T12:00:24;24.45;;;16.83;;
57029;SDS011;42920;45.306;20.448;2022-08-24T12:12:10;19.58;;;16.35;;
57029;SDS011;42920;45.306;20.448;2022-08-24T12:14:52;19.23;;;16.02;;
57029;SDS011;42920;45.306;20.448;2022-08-24T12:17:42;20.23;;;14.40;;
57029;SDS011;42920;45.306;20.448;2022-08-24T12:20:25;20.83;;;15.63;;
57029;SDS011;42920;45.306;20.448;2022-08-24T12:22:53;20.55;;;16.15;;
57029;SDS011;42920;45.306;20.448;2022-08-24T12:25:21;18.42;;;15.00;;
57029;SDS011;42920;45.306;20.448;2022-08-24T12:28:08;18.38;;;15.00;;
57029;SDS011;42920;45.306;20.448;2022-08-24T12:30:35;20.38;;;16.05;;
57029;SDS011;42920;45.306;20.448;2022-08-24T12:33:02;18.38;;;15.13;;
57029;SDS011;42920;45.306;20.448;2022-08-24T12:35:40;18.88;;;14.38;;
57029;SDS011;42920;45.306;20.448;2022-08-24T12:43:24;65.90;;;49.10;;
57029;SDS011;42920;45.306;20.448;2022-08-24T12:46:00;22.85;;;18.40;;
57029;SDS011;42920;45.306;20.448;2022-08-24T12:48:32;17.50;;;14.57;;
57029;SDS011;42920;45.306;20.448;2022-08-24T12:51:17;17.17;;;14.02;;
57029;SDS011;42920;45.306;20.448;2022-08-24T12:59:24;16.63;;;12.88;;
57029;SDS011;42920;45.306;20.448;2022-08-24T13:36:04;14.23;;;11.57;;
57029;SDS011;42920;45.306;20.448;2022-08-24T13:41:47;14.23;;;10.63;;
57029;SDS011;42920;45.306;20.448;2022-08-24T13:44:44;15.00;;;11.75;;
57029;SDS011;42920;45.306;20.448;2022-08-24T13:47:32;14.60;;;11.57;;
57029;SDS011;42920;45.306;20.448;2022-08-24T13:58:58;12.15;;;9.93;;
57029;SDS011;42920;45.306;20.448;2022-08-24T14:01:37;17.23;;;11.35;;
57029;SDS011;42920;45.306;20.448;2022-08-24T14:06:54;11.52;;;9.90;;
57029;SDS011;42920;45.306;20.448;2022-08-24T14:09:35;13.70;;;10.00;;
57029;SDS011;42920;45.306;20.448;2022-08-24T14:37:10;15.45;;;10.57;;
57029;SDS011;42920;45.306;20.448;2022-08-24T14:39:57;14.70;;;10.63;;
57029;SDS011;42920;45.306;20.448;2022-08-24T14:43:02;14.73;;;10.73;;
57029;SDS011;42920;45.306;20.448;2022-08-24T15:07:59;10.13;;;8.57;;
57029;SDS011;42920;45.306;20.448;2022-08-24T15:10:44;12.10;;;9.18;;
57029;SDS011;42920;45.306;20.448;2022-08-24T15:13:13;11.43;;;9.52;;
57029;SDS011;42920;45.306;20.448;2022-08-24T15:16:04;12.18;;;9.60;;
57029;SDS011;42920;45.306;20.448;2022-08-24T15:24:17;9.80;;;8.23;;
57029;SDS011;42920;45.306;20.448;2022-08-24T15:29:45;10.85;;;9.07;;
57029;SDS011;42920;45.306;20.448;2022-08-24T15:32:17;13.50;;;9.10;;
57029;SDS011;42920;45.306;20.448;2022-08-24T15:34:45;11.50;;;8.30;;
57029;SDS011;42920;45.306;20.448;2022-08-24T15:37:36;10.88;;;8.13;;
57029;SDS011;42920;45.306;20.448;2022-08-24T15:40:04;12.05;;;9.02;;
57029;SDS011;42920;45.306;20.448;2022-08-24T15:42:53;9.75;;;8.75;;
57029;SDS011;42920;45.306;20.448;2022-08-24T15:45:30;11.48;;;8.27;;
57029;SDS011;42920;45.306;20.448;2022-08-24T15:47:57;10.68;;;8.63;;
57029;SDS011;42920;45.306;20.448;2022-08-24T15:53:06;10.52;;;8.82;;
57029;SDS011;42920;45.306;20.448;2022-08-24T15:55:49;15.02;;;8.82;;
57029;SDS011;42920;45.306;20.448;2022-08-24T16:01:00;12.05;;;8.30;;
57029;SDS011;42920;45.306;20.448;2022-08-24T16:03:55;12.38;;;8.35;;
57029;SDS011;42920;45.306;20.448;2022-08-24T16:11:33;16.65;;;10.27;;
57029;SDS011;42920;45.306;20.448;2022-08-24T16:14:02;15.55;;;8.63;;
57029;SDS011;42920;45.306;20.448;2022-08-24T16:16:55;11.35;;;8.60;;
57029;SDS011;42920;45.306;20.448;2022-08-24T16:19:25;11.40;;;9.55;;
57029;SDS011;42920;45.306;20.448;2022-08-24T16:24:29;13.82;;;9.35;;
57029;SDS011;42920;45.306;20.448;2022-08-24T16:29:48;13.23;;;10.02;;
57029;SDS011;42920;45.306;20.448;2022-08-24T16:34:49;12.18;;;8.93;;
57029;SDS011;42920;45.306;20.448;2022-08-24T16:37:21;16.58;;;9.50;;
57029;SDS011;42920;45.306;20.448;2022-08-24T16:39:47;11.95;;;9.00;;
57029;SDS011;42920;45.306;20.448;2022-08-24T16:42:24;14.98;;;9.13;;
57029;SDS011;42920;45.306;20.448;2022-08-24T16:44:51;11.57;;;9.05;;
57029;SDS011;42920;45.306;20.448;2022-08-24T16:47:19;13.68;;;9.18;;
57029;SDS011;42920;45.306;20.448;2022-08-24T16:49:45;14.30;;;10.02;;
57029;SDS011;42920;45.306;20.448;2022-08-24T16:52:12;13.15;;;10.02;;
57029;SDS011;42920;45.306;20.448;2022-08-24T16:54:38;12.43;;;9.68;;
57029;SDS011;42920;45.306;20.448;2022-08-24T16:57:10;18.10;;;9.85;;
57029;SDS011;42920;45.306;20.448;2022-08-24T16:59:39;11.48;;;8.82;;
57029;SDS011;42920;45.306;20.448;2022-08-24T17:02:06;13.43;;;9.65;;
57029;SDS011;42920;45.306;20.448;2022-08-24T17:04:33;12.82;;;9.98;;
57029;SDS011;42920;45.306;20.448;2022-08-24T17:07:00;17.80;;;10.07;;
57029;SDS011;42920;45.306;20.448;2022-08-24T17:09:27;13.52;;;10.20;;
57029;SDS011;42920;45.306;20.448;2022-08-24T17:11:54;15.68;;;10.20;;
57029;SDS011;42920;45.306;20.448;2022-08-24T17:14:19;13.50;;;9.30;;
57029;SDS011;42920;45.306;20.448;2022-08-24T17:16:45;13.50;;;10.27;;
57029;SDS011;42920;45.306;20.448;2022-08-24T17:19:12;13.15;;;10.82;;
57029;SDS011;42920;45.306;20.448;2022-08-24T17:21:41;13.93;;;10.82;;
57029;SDS011;42920;45.306;20.448;2022-08-24T17:24:07;15.35;;;10.60;;
57029;SDS011;42920;45.306;20.448;2022-08-24T17:26:34;17.02;;;11.35;;
57029;SDS011;42920;45.306;20.448;2022-08-24T17:29:01;15.07;;;11.48;;
57029;SDS011;42920;45.306;20.448;2022-08-24T17:31:29;15.05;;;11.18;;
57029;SDS011;42920;45.306;20.448;2022-08-24T17:33:56;15.40;;;11.65;;
57029;SDS011;42920;45.306;20.448;2022-08-24T17:36:22;20.10;;;11.18;;
57029;SDS011;42920;45.306;20.448;2022-08-24T17:38:49;12.98;;;11.50;;
57029;SDS011;42920;45.306;20.448;2022-08-24T17:41:18;15.82;;;12.00;;
57029;SDS011;42920;45.306;20.448;2022-08-24T17:43:44;20.10;;;11.02;;
57029;SDS011;42920;45.306;20.448;2022-08-24T17:46:10;13.07;;;11.07;;
57029;SDS011;42920;45.306;20.448;2022-08-24T17:48:38;14.43;;;11.93;;
57029;SDS011;42920;45.306;20.448;2022-08-24T17:51:06;16.30;;;9.88;;
57029;SDS011;42920;45.306;20.448;2022-08-24T17:53:32;13.77;;;10.40;;
57029;SDS011;42920;45.306;20.448;2022-08-24T17:56:00;14.38;;;11.02;;
57029;SDS011;42920;45.306;20.448;2022-08-24T17:58:27;16.67;;;10.68;;
57029;SDS011;42920;45.306;20.448;2022-08-24T18:00:53;15.30;;;11.20;;
57029;SDS011;42920;45.306;20.448;2022-08-24T18:03:19;13.27;;;11.02;;
57029;SDS011;42920;45.306;20.448;2022-08-24T18:05:44;17.02;;;12.40;;
57029;SDS011;42920;45.306;20.448;2022-08-24T18:08:11;16.42;;;12.13;;
57029;SDS011;42920;45.306;20.448;2022-08-24T18:10:37;16.48;;;13.02;;
57029;SDS011;42920;45.306;20.448;2022-08-24T18:13:03;16.50;;;12.95;;
57029;SDS011;42920;45.306;20.448;2022-08-24T18:15:29;18.20;;;14.73;;
57029;SDS011;42920;45.306;20.448;2022-08-24T18:17:58;19.27;;;13.95;;
57029;SDS011;42920;45.306;20.448;2022-08-24T18:20:26;20.13;;;14.10;;
57029;SDS011;42920;45.306;20.448;2022-08-24T18:22:55;18.33;;;14.63;;
57029;SDS011;42920;45.306;20.448;2022-08-24T18:25:21;19.45;;;13.98;;
57029;SDS011;42920;45.306;20.448;2022-08-24T18:27:48;16.60;;;14.07;;
57029;SDS011;42920;45.306;20.448;2022-08-24T18:30:25;17.05;;;12.60;;
57029;SDS011;42920;45.306;20.448;2022-08-24T18:32:52;17.45;;;13.18;;
57029;SDS011;42920;45.306;20.448;2022-08-24T18:35:18;19.05;;;14.13;;
57029;SDS011;42920;45.306;20.448;2022-08-24T18:37:44;18.65;;;14.23;;
57029;SDS011;42920;45.306;20.448;2022-08-24T18:40:10;16.75;;;12.65;;
57029;SDS011;42920;45.306;20.448;2022-08-24T18:42:37;21.52;;;14.48;;
57029;SDS011;42920;45.306;20.448;2022-08-24T18:45:05;23.63;;;12.77;;
57029;SDS011;42920;45.306;20.448;2022-08-24T18:47:32;23.15;;;13.63;;
57029;SDS011;42920;45.306;20.448;2022-08-24T18:49:58;19.25;;;14.88;;
57029;SDS011;42920;45.306;20.448;2022-08-24T18:52:24;22.35;;;14.18;;
57029;SDS011;42920;45.306;20.448;2022-08-24T18:54:50;19.65;;;14.52;;
57029;SDS011;42920;45.306;20.448;2022-08-24T18:57:16;24.65;;;14.65;;
57029;SDS011;42920;45.306;20.448;2022-08-24T18:59:43;18.98;;;15.32;;
57029;SDS011;42920;45.306;20.448;2022-08-24T19:02:16;19.27;;;14.57;;
57029;SDS011;42920;45.306;20.448;2022-08-24T19:07:40;23.88;;;16.05;;
57029;SDS011;42920;45.306;20.448;2022-08-24T19:10:08;21.42;;;15.73;;
57029;SDS011;42920;45.306;20.448;2022-08-24T19:12:38;18.88;;;14.30;;
57029;SDS011;42920;45.306;20.448;2022-08-24T19:15:08;19.10;;;13.80;;
57029;SDS011;42920;45.306;20.448;2022-08-24T19:17:35;18.17;;;13.93;;
57029;SDS011;42920;45.306;20.448;2022-08-24T19:20:00;16.50;;;13.80;;
57029;SDS011;42920;45.306;20.448;2022-08-24T19:22:27;20.48;;;13.75;;
57029;SDS011;42920;45.306;20.448;2022-08-24T19:24:54;18.48;;;12.98;;
57029;SDS011;42920;45.306;20.448;2022-08-24T19:27:22;19.25;;;13.50;;
57029;SDS011;42920;45.306;20.448;2022-08-24T19:29:48;20.33;;;12.95;;
57029;SDS011;42920;45.306;20.448;2022-08-24T19:32:15;18.58;;;13.45;;
57029;SDS011;42920;45.306;20.448;2022-08-24T19:34:53;18.17;;;13.07;;
57029;SDS011;42920;45.306;20.448;2022-08-24T19:37:19;18.60;;;12.98;;
57029;SDS011;42920;45.306;20.448;2022-08-24T19:39:46;15.35;;;12.88;;